createdAt,value
2022-10-13T00:01:50.631Z,100316.38
2022-10-13T00:04:18.610Z,100311.84
2022-10-13T00:06:46.231Z,100312.69
2022-10-13T00:09:13.935Z,100324.91
2022-10-13T00:11:41.527Z,100315.03
2022-10-13T00:14:09.062Z,100317.59
2022-10-13T00:16:37.018Z,100320.91
2022-10-13T00:19:04.600Z,100317.31
2022-10-13T00:21:32.208Z,100319.75
2022-10-13T00:24:01.180Z,100325.63
2022-10-13T00:26:28.727Z,100321.84
2022-10-13T00:28:56.860Z,100317.19
2022-10-13T00:31:24.603Z,100321.41
2022-10-13T00:33:52.936Z,100319.41
2022-10-13T00:36:20.754Z,100309.56
2022-10-13T00:38:48.350Z,100306.69
2022-10-13T00:41:16.315Z,100303.75
2022-10-13T00:43:43.905Z,100300.88
2022-10-13T00:46:11.517Z,100299.72
2022-10-13T00:48:39.272Z,100292.41
2022-10-13T00:51:06.815Z,100293.94
2022-10-13T00:53:34.800Z,100295.41
2022-10-13T00:56:02.401Z,100294.34
2022-10-13T00:58:31.737Z,100300.22
2022-10-13T01:00:59.607Z,100288.50
2022-10-13T01:03:27.220Z,100293.72
2022-10-13T01:05:55.214Z,100284.72
2022-10-13T01:08:22.842Z,100286.31
2022-10-13T01:10:50.380Z,100289.63
2022-10-13T01:13:17.961Z,100286.84
2022-10-13T01:15:45.597Z,100288.44
2022-10-13T01:18:13.542Z,100277.81
2022-10-13T01:20:41.121Z,100272.50
2022-10-13T01:23:08.739Z,100276.97
2022-10-13T01:25:36.501Z,100270.78
2022-10-13T01:28:04.530Z,100270.69
2022-10-13T01:30:32.528Z,100262.81
2022-10-13T01:33:00.112Z,100261.03
2022-10-13T01:35:27.702Z,100252.22
2022-10-13T01:37:55.499Z,100254.94
2022-10-13T01:40:23.632Z,100246.06
2022-10-13T01:42:51.621Z,100238.91
2022-10-13T01:45:19.228Z,100242.75
2022-10-13T01:47:46.802Z,100239.03
2022-10-13T01:50:14.357Z,100228.41
2022-10-13T01:52:42.006Z,100229.03
2022-10-13T01:55:09.942Z,100223.00
2022-10-13T01:57:37.483Z,100218.94
2022-10-13T02:00:05.357Z,100214.91
2022-10-13T02:02:33.090Z,100211.84
2022-10-13T02:05:00.672Z,100225.44
2022-10-13T02:07:28.672Z,100212.34
2022-10-13T02:09:56.397Z,100220.31
2022-10-13T02:12:24.500Z,100215.22
2022-10-13T02:14:52.113Z,100214.50
2022-10-13T02:17:19.667Z,100211.94
2022-10-13T02:19:47.615Z,100208.66
2022-10-13T02:22:15.258Z,100211.31
2022-10-13T02:24:42.848Z,100211.41
2022-10-13T02:27:10.421Z,100213.22
2022-10-13T02:29:38.019Z,100213.22
2022-10-13T02:32:05.950Z,100211.41
2022-10-13T02:34:33.858Z,100201.63
2022-10-13T02:37:01.485Z,100209.38
2022-10-13T02:39:29.229Z,100209.38
2022-10-13T02:41:56.808Z,100207.47
2022-10-13T02:44:25.351Z,100211.84
2022-10-13T02:46:52.904Z,100212.56
2022-10-13T02:49:20.457Z,100210.88
2022-10-13T02:51:48.104Z,100210.66
2022-10-13T02:54:15.674Z,100207.25
2022-10-13T02:56:43.985Z,100206.06
2022-10-13T02:59:12.200Z,100210.16
2022-10-13T03:01:41.559Z,100211.63
2022-10-13T03:04:09.305Z,100221.06
2022-10-13T03:06:36.912Z,100212.63
2022-10-13T03:09:04.462Z,100211.16
2022-10-13T03:11:32.028Z,100212.66
2022-10-13T03:13:59.728Z,100198.31
2022-10-13T03:16:27.486Z,100202.94
2022-10-13T03:18:55.033Z,100207.56
2022-10-13T03:21:22.964Z,100203.44
2022-10-13T03:23:50.526Z,100199.34
2022-10-13T03:26:18.126Z,100201.66
2022-10-13T03:28:45.969Z,100197.56
2022-10-13T03:31:13.948Z,100188.25
2022-10-13T03:33:41.889Z,100185.09
2022-10-13T03:36:09.467Z,100189.94
2022-10-13T03:38:37.095Z,100197.38
2022-10-13T03:41:04.720Z,100183.41
2022-10-13T03:43:32.277Z,100185.59
2022-10-13T03:46:00.221Z,100186.09
2022-10-13T03:48:27.735Z,100183.06
2022-10-13T03:50:55.780Z,100187.09
2022-10-13T03:53:24.285Z,100176.16
2022-10-13T03:55:52.012Z,100177.63
2022-10-13T03:58:19.968Z,100175.66
2022-10-13T04:00:47.692Z,100180.91
2022-10-13T04:03:15.606Z,100177.13
2022-10-13T04:05:43.364Z,100176.88
2022-10-13T04:08:11.655Z,100177.59
2022-10-13T04:10:39.633Z,100172.03
2022-10-13T04:13:07.255Z,100172.03
2022-10-13T04:15:34.849Z,100171.06
2022-10-13T04:18:02.610Z,100161.22
2022-10-13T04:20:30.231Z,100154.94
2022-10-13T04:22:58.166Z,100158.19
2022-10-13T04:25:26.231Z,100152.72
2022-10-13T04:27:53.787Z,100144.47
2022-10-13T04:30:21.528Z,100145.44
2022-10-13T04:32:49.057Z,100146.16
2022-10-13T04:35:16.668Z,100139.97
2022-10-13T04:37:45.220Z,100143.38
2022-10-13T04:40:12.906Z,100143.13
2022-10-13T04:42:40.761Z,100128.78
2022-10-13T04:45:08.273Z,100130.50
2022-10-13T04:47:37.256Z,100128.53
2022-10-13T04:50:04.853Z,100121.28
2022-10-13T04:52:32.618Z,100124.78
2022-10-13T04:55:00.178Z,100136.31
2022-10-13T04:57:27.786Z,100134.63
2022-10-13T04:59:55.740Z,100130.25
2022-10-13T05:02:23.348Z,100125.16
2022-10-13T05:04:50.953Z,100123.72
2022-10-13T05:07:18.932Z,100123.13
2022-10-13T05:09:47.110Z,100118.03
2022-10-13T05:12:14.707Z,100120.25
2022-10-13T05:14:42.270Z,100115.50
2022-10-13T05:17:09.811Z,100113.94
2022-10-13T05:19:37.424Z,100114.53
2022-10-13T05:22:05.275Z,100117.69
2022-10-13T05:24:37.020Z,100113.78
2022-10-13T05:27:04.587Z,100114.38
2022-10-13T05:29:32.183Z,100118.63
2022-10-13T05:32:01.030Z,100116.69
2022-10-13T05:34:28.620Z,100118.13
2022-10-13T05:36:56.603Z,100124.06
2022-10-13T05:39:24.205Z,100123.78
2022-10-13T05:41:51.846Z,100123.56
2022-10-13T05:44:19.705Z,100116.25
2022-10-13T05:46:47.298Z,100112.63
2022-10-13T05:49:15.316Z,100108.97
2022-10-13T05:51:42.927Z,100104.38
2022-10-13T05:54:10.984Z,100110.41
2022-10-13T05:56:38.599Z,100115.75
2022-10-13T05:59:06.241Z,100112.00
2022-10-13T06:01:34.282Z,100107.38
2022-10-13T06:04:02.085Z,100104.69
2022-10-13T06:06:31.583Z,100112.69
2022-10-13T06:08:59.469Z,100110.03
2022-10-13T06:11:27.115Z,100103.59
2022-10-13T06:13:55.107Z,100094.50
2022-10-13T06:16:22.791Z,100101.50
2022-10-13T06:18:50.445Z,100090.56
2022-10-13T06:21:18.066Z,100094.94
2022-10-13T06:23:45.743Z,100104.50
2022-10-13T06:26:13.783Z,100100.03
2022-10-13T06:28:43.327Z,100104.38
2022-10-13T06:31:12.846Z,100102.31
2022-10-13T06:33:40.961Z,100101.31
2022-10-13T06:36:09.099Z,100087.84
2022-10-13T06:38:37.066Z,100084.06
2022-10-13T06:41:04.699Z,100064.53
2022-10-13T06:43:39.603Z,100080.28
2022-10-13T06:46:07.868Z,100073.25
2022-10-13T06:48:35.543Z,100076.63
2022-10-13T06:51:03.789Z,100082.94
2022-10-13T06:53:31.489Z,100083.94
2022-10-13T06:55:59.134Z,100071.28
2022-10-13T06:58:28.776Z,100086.34
2022-10-13T07:00:56.753Z,100079.06
2022-10-13T07:03:25.899Z,100079.75
2022-10-13T07:05:53.860Z,100082.16
2022-10-13T07:08:21.709Z,100075.00
2022-10-13T07:10:49.614Z,100065.75
2022-10-13T07:13:17.394Z,100071.69
2022-10-13T07:15:45.492Z,100067.63
2022-10-13T07:18:13.298Z,100059.09
2022-10-13T07:20:41.358Z,100067.41
2022-10-13T07:23:09.634Z,100075.91
2022-10-13T07:25:37.327Z,100087.00
2022-10-13T07:28:05.085Z,100082.13
2022-10-13T07:30:32.800Z,100092.44
2022-10-13T07:33:00.782Z,100091.91
2022-10-13T07:35:30.871Z,100078.84
2022-10-13T07:37:59.048Z,100083.66
2022-10-13T07:40:27.679Z,100073.44
2022-10-13T07:42:55.387Z,100074.69
2022-10-13T07:45:23.224Z,100078.78
2022-10-13T07:47:51.189Z,100076.56
2022-10-13T07:50:18.964Z,100081.50
2022-10-13T07:52:46.749Z,100081.66
2022-10-13T07:55:14.398Z,100076.47
2022-10-13T07:57:42.163Z,100075.50
2022-10-13T08:00:10.679Z,100074.81
2022-10-13T08:02:38.908Z,100080.50
2022-10-13T08:05:06.925Z,100077.94
2022-10-13T08:07:34.734Z,100074.72
2022-10-13T08:10:02.745Z,100073.00
2022-10-13T08:12:30.632Z,100070.16
2022-10-13T08:15:00.496Z,100074.31
2022-10-13T08:17:31.531Z,100068.88
2022-10-13T08:19:59.516Z,100070.94
2022-10-13T08:22:28.564Z,100077.84
2022-10-13T08:24:57.617Z,100078.94
2022-10-13T08:27:32.810Z,100064.19
2022-10-13T08:30:13.669Z,100071.53
2022-10-13T08:32:41.967Z,100062.28
2022-10-13T08:35:09.977Z,100054.09
2022-10-13T08:37:37.915Z,100057.78
2022-10-13T08:40:05.736Z,100056.94
2022-10-13T08:42:33.506Z,100063.84
2022-10-13T08:47:52.841Z,100073.13
2022-10-13T08:50:20.586Z,100076.53
2022-10-13T08:52:48.693Z,100074.06
2022-10-13T08:55:16.452Z,100073.88
2022-10-13T08:57:44.838Z,100078.00
2022-10-13T09:00:12.763Z,100056.66
2022-10-13T09:02:40.623Z,100066.25
2022-10-13T09:05:08.943Z,100064.72
2022-10-13T09:07:36.748Z,100065.16
2022-10-13T09:10:04.550Z,100064.34
2022-10-13T09:12:34.150Z,100062.25
2022-10-13T09:15:03.044Z,100066.91
2022-10-13T09:17:31.130Z,100065.44
2022-10-13T09:19:59.128Z,100061.31
2022-10-13T09:22:26.877Z,100055.66
2022-10-13T09:24:54.741Z,100062.78
2022-10-13T09:27:23.006Z,100054.38
2022-10-13T09:29:51.160Z,100048.84
2022-10-13T09:32:19.509Z,100053.44
2022-10-13T09:34:47.565Z,100045.94
2022-10-13T09:37:16.063Z,100044.41
2022-10-13T09:39:43.871Z,100037.72
2022-10-13T09:42:12.066Z,100041.09
2022-10-13T09:44:39.852Z,100038.34
2022-10-13T09:47:07.944Z,100040.03
2022-10-13T09:49:36.361Z,100033.97
2022-10-13T09:52:04.141Z,100032.28
2022-10-13T09:54:32.145Z,100031.59
2022-10-13T09:56:59.949Z,100025.53
2022-10-13T09:59:27.764Z,100030.09
2022-10-13T10:01:55.790Z,100028.44
2022-10-13T10:04:23.761Z,100035.16
2022-10-13T10:06:52.484Z,100028.91
2022-10-13T10:09:20.285Z,100034.13
2022-10-13T10:11:48.404Z,100028.91
2022-10-13T10:14:16.530Z,100029.38
2022-10-13T10:16:44.462Z,100039.81
2022-10-13T10:19:12.591Z,100030.22
2022-10-13T10:21:40.427Z,100023.50
2022-10-13T10:24:08.340Z,100027.22
2022-10-13T10:26:36.791Z,100025.91
2022-10-13T10:29:04.697Z,100009.88
2022-10-13T10:31:32.919Z,100010.72
2022-10-13T10:34:01.184Z,100007.16
2022-10-13T10:36:29.044Z,100005.81
2022-10-13T10:38:57.208Z,100000.31
2022-10-13T10:41:25.884Z,100002.66
2022-10-13T10:43:54.063Z,100003.31
2022-10-13T10:46:22.094Z,100001.75
2022-10-13T10:48:50.735Z,99996.22
2022-10-13T10:51:18.990Z,99990.56
2022-10-13T10:53:46.816Z,99997.03
2022-10-13T10:56:15.449Z,99984.59
2022-10-13T10:58:43.324Z,99980.38
2022-10-13T11:01:11.260Z,99984.78
2022-10-13T11:03:39.518Z,99983.41
2022-10-13T11:06:07.281Z,99975.31
2022-10-13T11:08:35.481Z,99969.75
2022-10-13T11:11:03.308Z,99970.94
2022-10-13T11:13:31.040Z,99975.91
2022-10-13T11:15:58.988Z,99967.44
2022-10-13T11:18:26.801Z,99959.41
2022-10-13T11:20:55.037Z,99961.19
2022-10-13T11:23:22.883Z,99953.84
2022-10-13T11:25:50.721Z,99957.53
2022-10-13T11:28:18.821Z,99943.91
2022-10-13T11:30:47.606Z,99946.78
2022-10-13T11:33:24.898Z,99937.75
2022-10-13T11:35:52.852Z,99937.81
2022-10-13T11:38:20.844Z,99941.44
2022-10-13T11:40:48.781Z,99929.38
2022-10-13T11:43:16.467Z,99934.78
2022-10-13T11:45:44.636Z,99927.44
2022-10-13T11:48:12.467Z,99931.53
2022-10-13T11:50:40.693Z,99916.28
2022-10-13T11:53:08.707Z,99915.13
2022-10-13T11:55:36.486Z,99914.19
2022-10-13T11:58:04.660Z,99917.25
2022-10-13T12:00:32.816Z,99917.53
2022-10-13T12:03:00.975Z,99917.63
2022-10-13T12:05:28.940Z,99911.31
2022-10-13T12:07:56.893Z,99909.81
2022-10-13T12:10:25.132Z,99903.09
2022-10-13T12:12:53.085Z,99903.19
2022-10-13T12:15:21.025Z,99912.59
2022-10-13T12:17:48.988Z,99905.50
2022-10-13T12:20:16.900Z,99910.81
2022-10-13T12:22:45.761Z,99905.72
2022-10-13T12:25:13.510Z,99908.50
2022-10-13T12:27:41.335Z,99907.75
2022-10-13T12:30:09.122Z,99903.97
2022-10-13T12:32:37.110Z,99908.53
2022-10-13T12:35:05.482Z,99893.97
2022-10-13T12:37:33.635Z,99904.09
2022-10-13T12:40:01.804Z,99900.00
2022-10-13T12:42:29.710Z,99900.06
2022-10-13T12:44:58.047Z,99906.03
2022-10-13T12:47:26.175Z,99908.75
2022-10-13T12:49:53.966Z,99902.56
2022-10-13T12:52:22.934Z,99899.03
2022-10-13T12:54:50.829Z,99903.66
2022-10-13T12:57:18.651Z,99903.84
2022-10-13T12:59:47.006Z,99909.78
2022-10-13T13:02:15.207Z,99907.91
2022-10-13T13:04:43.446Z,99906.63
2022-10-13T13:07:11.615Z,99913.19
2022-10-13T13:09:41.270Z,99905.13
2022-10-13T13:12:09.953Z,99909.81
2022-10-13T13:14:37.924Z,99917.03
2022-10-13T13:17:05.643Z,99914.03
2022-10-13T13:19:33.936Z,99927.06
2022-10-13T13:22:01.876Z,99922.81
2022-10-13T13:24:39.927Z,99922.94
2022-10-13T13:27:08.527Z,99920.84
2022-10-13T13:29:36.236Z,99918.13
2022-10-13T13:32:03.991Z,99923.31
2022-10-13T13:34:32.463Z,99916.75
2022-10-13T13:37:00.252Z,99930.66
2022-10-13T13:39:28.135Z,99930.16
2022-10-13T13:41:55.950Z,99927.41
2022-10-13T13:44:23.746Z,99923.94
2022-10-13T13:46:51.595Z,99927.59
2022-10-13T13:49:19.407Z,99930.53
2022-10-13T13:51:47.337Z,99929.25
2022-10-13T13:54:15.151Z,99925.28
2022-10-13T13:56:43.023Z,99930.06
2022-10-13T13:59:11.553Z,99925.31
2022-10-13T14:01:39.550Z,99931.59
2022-10-13T14:04:07.515Z,99924.31
2022-10-13T14:06:35.321Z,99925.09
2022-10-13T14:09:03.533Z,99922.19
2022-10-13T14:11:31.799Z,99924.47
2022-10-13T14:14:02.264Z,99937.47
2022-10-13T14:16:30.542Z,99925.50
2022-10-13T14:18:58.475Z,99918.78
2022-10-13T14:21:26.307Z,99926.09
2022-10-13T14:23:54.637Z,99922.88
2022-10-13T14:26:24.204Z,99920.50
2022-10-13T14:28:52.305Z,99916.16
2022-10-13T14:31:20.139Z,99922.34
2022-10-13T14:33:53.374Z,99920.50
2022-10-13T14:36:22.403Z,99912.47
2022-10-13T14:38:51.553Z,99911.00
2022-10-13T14:41:21.267Z,99909.72
2022-10-13T14:43:49.233Z,99899.22
2022-10-13T14:46:17.258Z,99901.00
2022-10-13T14:48:45.778Z,99897.72
2022-10-13T14:51:13.605Z,99896.09
2022-10-13T14:53:41.539Z,99888.59
2022-10-13T14:56:09.326Z,99890.81
2022-10-13T14:58:37.139Z,99889.81
2022-10-13T15:01:05.488Z,99893.34
2022-10-13T15:03:33.260Z,99886.28
2022-10-13T15:06:01.367Z,99888.44
2022-10-13T15:08:29.106Z,99885.38
2022-10-13T15:10:56.905Z,99875.94
2022-10-13T15:13:25.391Z,99874.56
2022-10-13T15:15:53.228Z,99881.22
2022-10-13T15:18:22.886Z,99881.81
2022-10-13T15:20:53.693Z,99881.44
2022-10-13T15:23:21.685Z,99888.94
2022-10-13T15:25:50.199Z,99883.72
2022-10-13T15:28:18.118Z,99883.03
2022-10-13T15:30:46.238Z,99880.50
2022-10-13T15:33:14.117Z,99883.19
2022-10-13T15:35:42.525Z,99879.81
2022-10-13T15:38:10.669Z,99878.28
2022-10-13T15:40:38.683Z,99879.28
2022-10-13T15:43:06.849Z,99879.41
2022-10-13T15:45:34.644Z,99878.72
2022-10-13T15:48:02.614Z,99886.09
2022-10-13T15:50:30.716Z,99877.19
2022-10-13T15:52:58.673Z,99874.69
2022-10-13T15:55:26.845Z,99879.50
2022-10-13T15:57:55.034Z,99877.09
2022-10-13T16:00:23.029Z,99875.56
2022-10-13T16:02:51.385Z,99865.97
2022-10-13T16:05:19.392Z,99874.34
2022-10-13T16:07:47.289Z,99866.63
2022-10-13T16:10:15.001Z,99866.06
2022-10-13T16:12:48.380Z,99864.53
2022-10-13T16:15:17.934Z,99869.19
2022-10-13T16:17:46.622Z,99863.13
2022-10-13T16:20:14.716Z,99857.94
2022-10-13T16:22:42.589Z,99852.72
2022-10-13T16:25:11.270Z,99845.66
2022-10-13T16:27:44.009Z,99852.03
2022-10-13T16:30:12.472Z,99843.28
2022-10-13T16:32:40.749Z,99845.28
2022-10-13T16:35:08.584Z,99842.91
2022-10-13T16:37:36.604Z,99849.25
2022-10-13T16:40:04.973Z,99847.72
2022-10-13T16:42:32.877Z,99851.53
2022-10-13T16:45:00.894Z,99849.00
2022-10-13T16:47:28.890Z,99848.44
2022-10-13T16:49:56.640Z,99852.13
2022-10-13T16:52:25.003Z,99853.25
2022-10-13T16:54:52.820Z,99848.06
2022-10-13T16:57:21.231Z,99848.22
2022-10-13T16:59:49.360Z,99846.53
2022-10-13T17:02:17.620Z,99847.53
2022-10-13T17:04:46.058Z,99842.31
2022-10-13T17:07:13.995Z,99845.97
2022-10-13T17:09:42.027Z,99844.28
2022-10-13T17:12:09.969Z,99843.44
2022-10-13T17:14:37.772Z,99843.56
2022-10-13T17:17:06.447Z,99846.44
2022-10-13T17:19:34.381Z,99844.56
2022-10-13T17:22:02.454Z,99844.56
2022-10-13T17:24:31.187Z,99841.91
2022-10-13T17:26:58.999Z,99839.22
2022-10-13T17:29:27.442Z,99838.22
2022-10-13T17:31:55.275Z,99839.22
2022-10-13T17:34:23.455Z,99842.88
2022-10-13T17:36:51.367Z,99842.88
2022-10-13T17:39:19.448Z,99845.44
2022-10-13T17:41:47.865Z,99837.41
2022-10-13T17:44:20.405Z,99841.75
2022-10-13T17:46:48.415Z,99835.53
2022-10-13T17:49:16.338Z,99833.84
2022-10-13T17:51:44.312Z,99831.03
2022-10-13T17:54:16.002Z,99831.03
2022-10-13T17:56:44.286Z,99840.91
2022-10-13T17:59:12.677Z,99839.06
2022-10-13T18:01:42.286Z,99833.59
2022-10-13T18:04:10.429Z,99836.09
2022-10-13T18:06:40.679Z,99840.47
2022-10-13T18:09:08.579Z,99840.47
2022-10-13T18:11:36.811Z,99839.63
2022-10-13T18:14:04.814Z,99835.94
2022-10-13T18:16:32.721Z,99840.31
2022-10-13T18:19:00.808Z,99837.63
2022-10-13T18:21:29.559Z,99842.00
2022-10-13T18:23:57.668Z,99843.72
2022-10-13T18:26:25.411Z,99847.34
2022-10-13T18:28:53.837Z,99831.28
2022-10-13T18:31:21.801Z,99843.72
2022-10-13T18:33:49.558Z,99838.34
2022-10-13T18:36:20.064Z,99840.31
2022-10-13T18:38:47.887Z,99841.16
2022-10-13T18:41:15.897Z,99843.00
2022-10-13T18:43:44.222Z,99835.81
2022-10-13T18:46:12.077Z,99845.66
2022-10-13T18:48:40.949Z,99845.66
2022-10-13T18:51:09.269Z,99848.34
2022-10-13T18:53:37.439Z,99846.53
2022-10-13T18:56:05.727Z,99843.72
2022-10-13T18:58:33.471Z,99847.34
2022-10-13T19:01:01.652Z,99847.34
2022-10-13T19:03:29.589Z,99857.25
2022-10-13T19:05:57.475Z,99851.88
2022-10-13T19:08:25.906Z,99854.56
2022-10-13T19:10:53.701Z,99861.75
2022-10-13T19:13:23.163Z,99861.91
2022-10-13T19:15:51.038Z,99867.41
2022-10-13T19:18:18.890Z,99858.69
2022-10-13T19:20:47.022Z,99870.53
2022-10-13T19:23:14.953Z,99860.09
2022-10-13T19:25:43.149Z,99863.78
2022-10-13T19:28:10.974Z,99864.09
2022-10-13T19:30:38.813Z,99866.06
2022-10-13T19:33:06.637Z,99863.66
2022-10-13T19:35:34.941Z,99871.16
2022-10-13T19:38:03.101Z,99867.78
2022-10-13T19:40:30.906Z,99871.88
2022-10-13T19:42:58.955Z,99883.84
2022-10-13T19:45:27.225Z,99870.91
2022-10-13T19:47:55.088Z,99877.56
2022-10-13T19:50:23.233Z,99878.81
2022-10-13T19:52:51.152Z,99875.59
2022-10-13T19:55:19.675Z,99881.94
2022-10-13T19:57:48.105Z,99874.03
2022-10-13T20:00:16.221Z,99876.03
2022-10-13T20:02:44.385Z,99879.69
2022-10-13T20:05:12.325Z,99884.19
2022-10-13T20:07:40.174Z,99880.50
2022-10-13T20:10:08.307Z,99879.69
2022-10-13T20:12:36.135Z,99879.56
2022-10-13T20:15:04.263Z,99891.94
2022-10-13T20:17:32.166Z,99881.06
2022-10-13T20:20:00.149Z,99883.75
2022-10-13T20:22:28.034Z,99882.94
2022-10-13T20:24:55.734Z,99879.69
2022-10-13T20:27:23.836Z,99875.47
2022-10-13T20:29:51.939Z,99883.94
2022-10-13T20:32:19.789Z,99885.91
2022-10-13T20:34:48.112Z,99885.19
2022-10-13T20:37:15.965Z,99891.69
2022-10-13T20:39:43.998Z,99886.47
2022-10-13T20:42:12.071Z,99881.97
2022-10-13T20:44:39.858Z,99874.91
2022-10-13T20:47:08.595Z,99881.13
2022-10-13T20:49:36.427Z,99876.47
2022-10-13T20:52:04.721Z,99880.84
2022-10-13T20:54:32.423Z,99884.19
2022-10-13T20:57:00.397Z,99892.22
2022-10-13T20:59:28.547Z,99885.91
2022-10-13T21:01:56.608Z,99888.44
2022-10-13T21:04:24.413Z,99883.94
2022-10-13T21:06:52.064Z,99887.59
2022-10-13T21:09:19.856Z,99892.94
2022-10-13T21:11:48.263Z,99882.09
2022-10-13T21:14:16.122Z,99884.75
2022-10-13T21:16:43.874Z,99890.97
2022-10-13T21:19:11.839Z,99890.84
2022-10-13T21:21:39.638Z,99889.16
2022-10-13T21:24:08.193Z,99898.88
2022-10-13T21:26:36.104Z,99888.28
2022-10-13T21:29:04.211Z,99894.91
2022-10-13T21:31:32.063Z,99887.59
2022-10-13T21:33:59.986Z,99887.34
2022-10-13T21:36:28.235Z,99886.22
2022-10-13T21:38:56.031Z,99883.81
2022-10-13T21:41:23.874Z,99891.16
2022-10-13T21:43:51.697Z,99888.59
2022-10-13T21:46:19.522Z,99887.63
2022-10-13T21:48:47.582Z,99891.16
2022-10-13T21:51:15.306Z,99889.34
2022-10-13T21:53:43.239Z,99896.38
2022-10-13T21:56:11.734Z,99889.34
2022-10-13T21:58:39.505Z,99889.34
2022-10-13T22:01:07.635Z,99880.31
2022-10-13T22:03:35.495Z,99879.47
2022-10-13T22:06:04.584Z,99878.47
2022-10-13T22:08:38.294Z,99880.31
2022-10-13T22:11:06.554Z,99876.78
2022-10-13T22:13:34.574Z,99872.41
2022-10-13T22:16:02.331Z,99876.91
2022-10-13T22:18:30.059Z,99880.56
2022-10-13T22:20:57.860Z,99878.06
2022-10-13T22:23:25.602Z,99884.25
2022-10-13T22:25:54.795Z,99881.44
2022-10-13T22:28:23.032Z,99877.78
2022-10-13T22:30:50.972Z,99877.78
2022-10-13T22:33:18.817Z,99878.63
2022-10-13T22:35:47.012Z,99880.31
2022-10-13T22:38:15.149Z,99883.00
2022-10-13T22:40:43.083Z,99886.50
2022-10-13T22:43:11.054Z,99891.84
2022-10-13T22:45:38.711Z,99885.50
2022-10-13T22:48:06.588Z,99882.00
2022-10-13T22:50:35.069Z,99880.16
2022-10-13T22:53:02.727Z,99875.53
2022-10-13T22:55:30.430Z,99887.91
2022-10-13T22:57:58.150Z,99888.75
2022-10-13T23:00:25.870Z,99880.56
2022-10-13T23:02:53.904Z,99878.88
2022-10-13T23:05:21.500Z,99883.25
2022-10-13T23:07:49.330Z,99889.28
2022-10-13T23:10:17.038Z,99878.59
2022-10-13T23:12:45.110Z,99878.59
2022-10-13T23:15:13.180Z,99886.63
2022-10-13T23:17:40.930Z,99878.59
2022-10-13T23:20:08.965Z,99882.97
2022-10-13T23:22:36.570Z,99877.59
2022-10-13T23:25:04.197Z,99874.94
2022-10-13T23:27:31.815Z,99876.66
2022-10-13T23:29:59.472Z,99866.75
2022-10-13T23:32:27.102Z,99870.31
2022-10-13T23:34:55.072Z,99867.63
2022-10-13T23:37:23.054Z,99862.28
2022-10-13T23:39:51.295Z,99858.59
2022-10-13T23:42:18.859Z,99858.59
2022-10-13T23:44:46.530Z,99854.06
2022-10-13T23:47:14.183Z,99854.94
2022-10-13T23:49:41.805Z,99851.25
2022-10-13T23:52:11.025Z,99845.91
2022-10-13T23:54:38.902Z,99849.28
2022-10-13T23:57:08.257Z,99851.00
2022-10-13T23:59:35.853Z,99848.47
